createdAt,value
2018-04-24T00:01:51.269Z,13.61
2018-04-24T00:04:20.291Z,13.67
2018-04-24T00:06:48.561Z,13.69
2018-04-24T00:09:16.817Z,13.68
2018-04-24T00:11:45.851Z,13.74
2018-04-24T00:14:14.131Z,13.70
2018-04-24T00:16:42.394Z,13.70
2018-04-24T00:19:10.646Z,13.61
2018-04-24T00:21:39.687Z,13.48
2018-04-24T00:24:07.943Z,13.54
2018-04-24T00:26:36.206Z,13.67
2018-04-24T00:29:05.241Z,13.82
2018-04-24T00:31:33.502Z,13.81
2018-04-24T00:34:01.762Z,13.82
2018-04-24T00:36:30.028Z,13.82
2018-04-24T00:38:58.285Z,13.59
2018-04-24T00:41:27.783Z,13.86
2018-04-24T00:43:56.050Z,13.69
2018-04-24T00:46:24.310Z,13.58
2018-04-24T00:48:52.583Z,13.68
2018-04-24T00:51:21.620Z,13.64
2018-04-24T00:53:49.877Z,13.51
2018-04-24T00:56:18.136Z,13.53
2018-04-24T00:58:47.156Z,13.59
2018-04-24T01:01:15.406Z,13.69
2018-04-24T01:03:43.662Z,13.78
2018-04-24T01:06:11.925Z,13.62
2018-04-24T01:08:40.185Z,13.57
2018-04-24T01:11:08.443Z,13.61
2018-04-24T01:13:37.475Z,13.71
2018-04-24T01:16:05.727Z,13.66
2018-04-24T01:18:33.995Z,13.70
2018-04-24T01:21:03.011Z,13.57
2018-04-24T01:23:31.270Z,13.47
2018-04-24T01:26:00.287Z,13.52
2018-04-24T01:28:28.551Z,13.57
2018-04-24T01:30:57.576Z,13.42
2018-04-24T01:33:25.851Z,13.60
2018-04-24T01:35:54.103Z,13.58
2018-04-24T01:38:22.363Z,13.46
2018-04-24T01:40:50.610Z,13.45
2018-04-24T01:43:18.883Z,13.47
2018-04-24T01:45:47.136Z,13.36
2018-04-24T01:48:16.168Z,13.49
2018-04-24T01:50:44.419Z,13.45
2018-04-24T01:53:13.442Z,13.48
2018-04-24T01:55:41.859Z,13.46
2018-04-24T01:58:10.110Z,13.50
2018-04-24T02:00:38.363Z,13.41
2018-04-24T02:03:07.386Z,13.36
2018-04-24T02:05:35.637Z,13.52
2018-04-24T02:08:04.665Z,13.35
2018-04-24T02:10:32.928Z,13.44
2018-04-24T02:13:01.195Z,13.24
2018-04-24T02:15:30.214Z,13.30
2018-04-24T02:17:58.811Z,13.42
2018-04-24T02:20:27.065Z,13.18
2018-04-24T02:22:56.095Z,13.19
2018-04-24T02:25:24.349Z,13.19
2018-04-24T02:27:52.607Z,13.12
2018-04-24T02:30:21.623Z,13.04
2018-04-24T02:32:49.893Z,13.03
2018-04-24T02:35:18.911Z,13.15
2018-04-24T02:37:47.179Z,13.09
2018-04-24T02:40:16.199Z,13.01
2018-04-24T02:42:44.458Z,13.00
2018-04-24T02:45:12.714Z,13.09
2018-04-24T02:47:40.971Z,13.01
2018-04-24T02:50:09.231Z,13.08
2018-04-24T02:52:37.487Z,13.04
2018-04-24T02:55:05.760Z,13.03
2018-04-24T02:57:36.031Z,13.10
2018-04-24T03:00:04.279Z,13.28
2018-04-24T03:02:32.531Z,13.20
2018-04-24T03:05:01.568Z,13.19
2018-04-24T03:07:29.819Z,13.20
2018-04-24T03:09:58.848Z,13.18
2018-04-24T03:12:27.099Z,13.28
2018-04-24T03:14:56.129Z,13.31
2018-04-24T03:17:24.379Z,13.33
2018-04-24T03:19:53.395Z,13.41
2018-04-24T03:22:21.654Z,13.23
2018-04-24T03:24:50.678Z,13.19
2018-04-24T03:27:18.930Z,13.08
2018-04-24T03:29:47.959Z,13.02
2018-04-24T03:32:16.207Z,12.98
2018-04-24T03:34:45.235Z,13.09
2018-04-24T03:37:13.494Z,13.07
2018-04-24T03:39:42.513Z,12.99
2018-04-24T03:42:10.788Z,12.94
2018-04-24T03:44:39.035Z,12.88
2018-04-24T03:47:07.279Z,12.86
2018-04-24T03:49:35.550Z,12.90
2018-04-24T03:52:03.806Z,12.76
2018-04-24T03:54:32.070Z,12.86
2018-04-24T03:57:00.327Z,12.99
2018-04-24T03:59:28.588Z,12.97
2018-04-24T04:01:56.843Z,13.17
2018-04-24T04:04:25.110Z,13.15
2018-04-24T04:06:53.364Z,13.09
2018-04-24T04:09:22.387Z,12.98
2018-04-24T04:11:51.559Z,13.08
2018-04-24T04:14:20.583Z,13.24
2018-04-24T04:16:51.131Z,13.17
2018-04-24T04:19:37.892Z,12.98
2018-04-24T04:22:24.865Z,13.06
2018-04-24T04:24:53.092Z,12.83
2018-04-24T04:27:22.106Z,12.78
2018-04-24T04:29:50.366Z,12.97
2018-04-24T04:32:19.383Z,13.08
2018-04-24T04:34:47.643Z,13.06
2018-04-24T04:37:16.712Z,13.03
2018-04-24T04:39:44.975Z,12.95
2018-04-24T04:42:13.231Z,12.79
2018-04-24T04:44:41.495Z,12.74
2018-04-24T04:47:09.743Z,12.71
2018-04-24T04:49:38.013Z,12.78
2018-04-24T04:52:06.271Z,12.93
2018-04-24T04:54:34.551Z,13.07
2018-04-24T04:57:02.802Z,13.11
2018-04-24T04:59:31.071Z,13.23
2018-04-24T05:02:00.090Z,13.26
2018-04-24T05:04:28.338Z,13.22
2018-04-24T05:06:57.371Z,13.38
2018-04-24T05:09:25.645Z,13.48
2018-04-24T05:11:54.718Z,13.56
2018-04-24T05:14:22.915Z,13.60
2018-04-24T05:16:51.170Z,13.77
2018-04-24T05:19:20.323Z,14.04
2018-04-24T05:21:48.593Z,14.34
2018-04-24T05:24:16.843Z,14.75
2018-04-24T05:26:45.870Z,14.68
2018-04-24T05:29:14.119Z,14.66
2018-04-24T05:31:43.147Z,14.63
2018-04-24T05:34:11.411Z,14.74
2018-04-24T05:36:39.676Z,14.83
2018-04-24T05:39:08.691Z,14.80
2018-04-24T05:41:36.954Z,15.36
2018-04-24T05:44:05.896Z,15.69
2018-04-24T05:46:34.161Z,15.57
2018-04-24T05:49:02.482Z,15.68
2018-04-24T05:51:30.736Z,15.59
2018-04-24T05:53:58.987Z,15.79
2018-04-24T05:56:27.257Z,17.85
2018-04-24T05:58:56.271Z,18.18
2018-04-24T06:01:25.318Z,17.86
2018-04-24T06:03:53.586Z,17.73
2018-04-24T06:06:21.835Z,18.12
2018-04-24T06:08:50.115Z,20.04
2018-04-24T06:11:18.378Z,19.38
2018-04-24T06:13:46.627Z,20.40
2018-04-24T06:16:14.895Z,22.67
2018-04-24T06:18:43.146Z,25.57
2018-04-24T06:21:11.423Z,25.02
2018-04-24T06:23:39.678Z,24.35
2018-04-24T06:26:08.710Z,21.53
2018-04-24T06:28:37.036Z,23.38
2018-04-24T06:31:05.227Z,23.83
2018-04-24T06:33:34.239Z,24.77
2018-04-24T06:36:02.601Z,26.94
2018-04-24T06:38:32.333Z,26.50
2018-04-24T06:41:01.347Z,24.65
2018-04-24T06:43:29.611Z,23.79
2018-04-24T06:45:57.865Z,24.14
2018-04-24T06:48:26.900Z,26.45
2018-04-24T06:50:55.918Z,26.14
2018-04-24T06:53:24.183Z,24.18
2018-04-24T06:55:52.444Z,23.03
2018-04-24T06:58:21.476Z,23.14
2018-04-24T07:00:49.792Z,23.80
2018-04-24T07:03:17.998Z,24.85
2018-04-24T07:05:47.022Z,24.99
2018-04-24T07:08:15.313Z,25.99
2018-04-24T07:10:43.592Z,26.57
2018-04-24T07:13:12.897Z,25.38
2018-04-24T07:15:41.151Z,26.57
2018-04-24T07:18:09.419Z,27.23
2018-04-24T07:20:38.418Z,27.76
2018-04-24T07:23:07.446Z,28.96
2018-04-24T07:25:35.702Z,30.55
2018-04-24T07:28:04.723Z,27.83
2018-04-24T07:30:33.000Z,27.67
2018-04-24T07:33:01.310Z,28.86
2018-04-24T07:35:29.514Z,28.01
2018-04-24T07:37:57.780Z,24.76
2018-04-24T07:40:26.032Z,24.78
2018-04-24T07:42:54.304Z,24.80
2018-04-24T07:45:22.559Z,26.15
2018-04-24T07:47:50.827Z,24.44
2018-04-24T07:50:19.855Z,21.81
2018-04-24T07:52:48.123Z,22.06
2018-04-24T07:55:16.375Z,22.95
2018-04-24T07:57:44.631Z,23.49
2018-04-24T08:00:12.901Z,22.81
2018-04-24T08:02:41.159Z,21.00
2018-04-24T08:05:09.439Z,24.92
2018-04-24T08:07:37.705Z,23.36
2018-04-24T08:10:06.799Z,25.37
2018-04-24T08:12:35.811Z,28.67
2018-04-24T08:15:04.079Z,29.45
2018-04-24T08:17:32.335Z,25.15
2018-04-24T08:20:00.605Z,25.95
2018-04-24T08:22:38.508Z,25.02
2018-04-24T08:25:06.762Z,26.49
2018-04-24T08:27:35.024Z,23.37
2018-04-24T08:30:03.292Z,26.97
2018-04-24T08:32:31.547Z,30.32
2018-04-24T08:35:00.579Z,29.48
2018-04-24T08:37:28.829Z,30.02
2018-04-24T08:39:57.892Z,29.76
2018-04-24T08:42:26.130Z,30.27
2018-04-24T08:44:54.390Z,25.11
2018-04-24T08:47:23.420Z,25.72
2018-04-24T08:49:51.677Z,26.87
2018-04-24T08:52:19.935Z,24.94
2018-04-24T08:54:48.218Z,28.56
2018-04-24T08:57:16.452Z,30.59
2018-04-24T08:59:44.708Z,31.26
2018-04-24T09:02:12.963Z,32.65
2018-04-24T09:04:43.639Z,28.95
2018-04-24T09:07:11.890Z,23.37
2018-04-24T09:09:40.918Z,25.32
2018-04-24T09:12:09.166Z,25.12
2018-04-24T09:14:38.203Z,25.26
2018-04-24T09:17:06.446Z,26.91
2018-04-24T09:19:34.718Z,26.01
2018-04-24T09:22:03.743Z,27.95
2018-04-24T09:24:32.002Z,27.76
2018-04-24T09:27:01.112Z,30.78
2018-04-24T09:29:29.286Z,31.64
2018-04-24T09:31:58.316Z,30.56
2018-04-24T09:34:26.566Z,27.49
2018-04-24T09:36:54.822Z,28.26
2018-04-24T09:39:23.843Z,24.81
2018-04-24T09:41:52.304Z,27.89
2018-04-24T09:44:20.551Z,28.99
2018-04-24T09:46:48.824Z,27.80
2018-04-24T09:49:17.076Z,28.36
2018-04-24T09:51:45.346Z,26.81
2018-04-24T09:54:14.584Z,26.00
2018-04-24T09:56:42.884Z,27.02
2018-04-24T09:59:11.108Z,28.92
2018-04-24T10:01:39.392Z,30.04
2018-04-24T10:04:07.642Z,30.45
2018-04-24T10:06:35.903Z,29.22
2018-04-24T10:09:04.155Z,29.35
2018-04-24T10:11:32.415Z,27.64
2018-04-24T10:14:00.667Z,26.83
2018-04-24T10:16:28.939Z,26.83
2018-04-24T10:18:57.191Z,25.15
2018-04-24T10:21:25.507Z,25.98
2018-04-24T10:23:53.779Z,27.77
2018-04-24T10:26:22.047Z,29.53
2018-04-24T10:28:50.303Z,27.14
2018-04-24T10:31:18.578Z,28.27
2018-04-24T10:33:46.837Z,29.37
2018-04-24T10:36:16.227Z,30.47
2018-04-24T10:38:45.263Z,29.59
2018-04-24T10:41:13.531Z,28.27
2018-04-24T10:43:41.785Z,27.71
2018-04-24T10:46:10.059Z,28.09
2018-04-24T10:48:38.300Z,27.24
2018-04-24T10:51:06.556Z,29.31
2018-04-24T10:53:34.818Z,30.18
2018-04-24T10:56:03.925Z,27.48
2018-04-24T10:58:32.098Z,27.20
2018-04-24T11:01:00.354Z,28.98
2018-04-24T11:03:28.635Z,30.30
2018-04-24T11:05:56.893Z,30.15
2018-04-24T11:08:25.153Z,29.30
2018-04-24T11:10:53.406Z,29.38
2018-04-24T11:13:21.682Z,29.45
2018-04-24T11:15:49.947Z,29.15
2018-04-24T11:18:18.678Z,30.07
2018-04-24T11:20:46.932Z,28.38
2018-04-24T11:23:15.198Z,26.99
2018-04-24T11:25:44.223Z,28.41
2018-04-24T11:28:12.491Z,29.60
2018-04-24T11:30:40.738Z,29.34
2018-04-24T11:33:09.027Z,29.54
2018-04-24T11:35:37.276Z,29.50
2018-04-24T11:38:05.540Z,28.61
2018-04-24T11:40:33.779Z,29.82
2018-04-24T11:43:02.817Z,30.60
2018-04-24T11:45:31.722Z,30.72
2018-04-24T11:47:59.983Z,28.58
2018-04-24T11:50:28.240Z,28.66
2018-04-24T11:52:57.262Z,28.37
2018-04-24T11:55:25.523Z,28.55
2018-04-24T11:57:54.551Z,29.10
2018-04-24T12:00:22.804Z,29.80
2018-04-24T12:02:51.083Z,29.50
2018-04-24T12:05:20.079Z,30.02
2018-04-24T12:07:49.126Z,29.80
2018-04-24T12:10:17.397Z,30.37
2018-04-24T12:12:45.657Z,30.85
2018-04-24T12:15:13.903Z,30.52
2018-04-24T12:17:42.928Z,29.00
2018-04-24T12:20:11.176Z,30.39
2018-04-24T12:22:40.204Z,30.64
2018-04-24T12:25:08.465Z,29.77
2018-04-24T12:27:37.496Z,29.82
2018-04-24T12:30:05.756Z,29.14
2018-04-24T12:32:34.025Z,29.30
2018-04-24T12:35:03.055Z,29.84
2018-04-24T12:37:31.314Z,29.93
2018-04-24T12:39:59.562Z,29.83
2018-04-24T12:42:27.808Z,29.81
2018-04-24T12:44:56.079Z,28.87
2018-04-24T12:47:24.332Z,28.97
2018-04-24T12:49:53.628Z,28.72
2018-04-24T12:52:22.637Z,27.75
2018-04-24T12:54:50.893Z,26.89
2018-04-24T12:57:19.929Z,26.04
2018-04-24T12:59:48.178Z,26.26
2018-04-24T13:02:17.196Z,26.29
2018-04-24T13:04:45.522Z,25.22
2018-04-24T13:07:14.478Z,25.91
2018-04-24T13:09:42.762Z,25.96
2018-04-24T13:12:11.002Z,25.65
2018-04-24T13:14:39.270Z,24.55
2018-04-24T13:17:07.542Z,24.03
2018-04-24T13:19:35.808Z,24.89
2018-04-24T13:22:04.071Z,24.75
2018-04-24T13:24:32.813Z,24.45
2018-04-24T13:27:01.059Z,25.13
2018-04-24T13:29:29.327Z,24.67
2018-04-24T13:31:57.586Z,24.29
2018-04-24T13:34:26.610Z,24.78
2018-04-24T13:36:54.864Z,25.02
2018-04-24T13:39:23.883Z,25.15
2018-04-24T13:41:52.242Z,24.76
2018-04-24T13:44:22.524Z,24.84
2018-04-24T13:46:50.763Z,25.19
2018-04-24T13:49:19.060Z,25.27
2018-04-24T13:51:47.306Z,25.20
2018-04-24T13:54:16.334Z,25.03
2018-04-24T13:56:45.432Z,25.01
2018-04-24T13:59:13.704Z,25.35
2018-04-24T14:01:41.954Z,25.03
2018-04-24T14:04:11.867Z,25.08
2018-04-24T14:06:40.878Z,24.92
2018-04-24T14:09:09.903Z,24.80
2018-04-24T14:11:38.163Z,24.64
2018-04-24T14:14:06.471Z,24.47
2018-04-24T14:16:34.722Z,24.59
2018-04-24T14:19:02.995Z,24.63
2018-04-24T14:21:32.051Z,24.94
2018-04-24T14:24:00.278Z,25.08
2018-04-24T14:26:29.299Z,24.91
2018-04-24T14:28:58.402Z,24.57
2018-04-24T14:31:26.655Z,23.91
2018-04-24T14:33:55.679Z,23.92
2018-04-24T14:36:25.290Z,23.71
2018-04-24T14:38:53.540Z,23.92
2018-04-24T14:41:22.567Z,23.32
2018-04-24T14:43:50.823Z,23.46
2018-04-24T14:46:19.847Z,23.51
2018-04-24T14:48:48.188Z,23.41
2018-04-24T14:51:16.383Z,23.51
2018-04-24T14:53:44.628Z,23.24
2018-04-24T14:56:12.894Z,22.91
2018-04-24T14:58:41.141Z,22.90
2018-04-24T15:01:09.417Z,22.82
2018-04-24T15:03:37.676Z,22.90
2018-04-24T15:06:06.699Z,23.21
2018-04-24T15:08:34.959Z,23.36
2018-04-24T15:11:03.997Z,23.34
2018-04-24T15:13:32.238Z,23.32
2018-04-24T15:16:00.495Z,23.14
2018-04-24T15:18:28.767Z,23.07
2018-04-24T15:20:57.032Z,22.98
2018-04-24T15:23:25.291Z,22.88
2018-04-24T15:25:53.543Z,22.86
2018-04-24T15:28:21.796Z,22.75
2018-04-24T15:30:50.059Z,22.77
2018-04-24T15:33:18.336Z,22.95
2018-04-24T15:35:46.595Z,22.72
2018-04-24T15:38:14.854Z,22.73
2018-04-24T15:40:43.114Z,22.97
2018-04-24T15:43:12.152Z,22.87
2018-04-24T15:45:40.411Z,22.82
2018-04-24T15:48:08.758Z,22.97
2018-04-24T15:50:37.688Z,22.94
2018-04-24T15:53:05.951Z,22.49
2018-04-24T15:55:34.975Z,22.40
2018-04-24T15:58:03.226Z,22.40
2018-04-24T16:00:32.260Z,22.21
2018-04-24T16:03:00.528Z,22.13
2018-04-24T16:05:28.801Z,22.09
2018-04-24T16:07:57.814Z,22.02
2018-04-24T16:10:26.078Z,22.02
2018-04-24T16:12:54.341Z,21.75
2018-04-24T16:15:23.366Z,21.61
2018-04-24T16:17:51.627Z,21.59
2018-04-24T16:20:20.643Z,21.56
2018-04-24T16:22:48.909Z,21.27
2018-04-24T16:25:17.794Z,21.27
2018-04-24T16:27:46.823Z,21.12
2018-04-24T16:30:15.080Z,21.22
2018-04-24T16:32:44.109Z,21.18
2018-04-24T16:35:12.358Z,21.17
2018-04-24T16:37:40.628Z,20.95
2018-04-24T16:40:09.651Z,20.84
2018-04-24T16:42:37.911Z,20.77
2018-04-24T16:45:06.942Z,20.67
2018-04-24T16:47:35.857Z,20.47
2018-04-24T16:50:04.107Z,20.31
2018-04-24T16:52:32.355Z,20.22
2018-04-24T16:55:01.384Z,20.37
2018-04-24T16:57:30.257Z,20.25
2018-04-24T16:59:59.282Z,20.22
2018-04-24T17:02:27.558Z,20.20
2018-04-24T17:04:55.813Z,20.16
2018-04-24T17:07:24.847Z,20.12
2018-04-24T17:09:53.122Z,20.18
2018-04-24T17:12:21.376Z,20.02
2018-04-24T17:14:50.405Z,20.00
2018-04-24T17:17:18.688Z,19.83
2018-04-24T17:19:46.962Z,19.67
2018-04-24T17:22:15.339Z,19.62
2018-04-24T17:24:43.591Z,19.54
2018-04-24T17:27:12.614Z,19.66
2018-04-24T17:29:41.706Z,19.51
2018-04-24T17:32:09.977Z,19.36
2018-04-24T17:34:38.263Z,19.38
2018-04-24T17:37:06.541Z,19.25
2018-04-24T17:39:37.967Z,19.09
2018-04-24T17:42:06.233Z,18.97
2018-04-24T17:44:34.483Z,18.86
2018-04-24T17:47:02.744Z,18.62
2018-04-24T17:49:31.010Z,18.40
2018-04-24T17:52:00.048Z,18.35
2018-04-24T17:54:28.295Z,18.12
2018-04-24T17:56:56.558Z,18.02
2018-04-24T17:59:25.573Z,17.95
2018-04-24T18:01:55.082Z,17.70
2018-04-24T18:04:23.562Z,17.53
2018-04-24T18:06:51.847Z,17.52
2018-04-24T18:09:20.117Z,17.39
2018-04-24T18:11:49.143Z,17.69
2018-04-24T18:14:17.392Z,17.15
2018-04-24T18:16:46.428Z,17.05
2018-04-24T18:19:14.688Z,16.91
2018-04-24T18:21:42.959Z,16.81
2018-04-24T18:24:11.988Z,16.36
2018-04-24T18:26:40.239Z,15.99
2018-04-24T18:29:09.266Z,16.06
2018-04-24T18:31:37.520Z,16.10
2018-04-24T18:34:06.555Z,15.90
2018-04-24T18:36:34.815Z,15.64
2018-04-24T18:39:03.082Z,15.40
2018-04-24T18:41:31.344Z,15.05
2018-04-24T18:44:00.994Z,14.78
2018-04-24T18:46:29.246Z,14.59
2018-04-24T18:48:58.275Z,14.50
2018-04-24T18:51:26.532Z,14.39
2018-04-24T18:53:54.799Z,14.28
2018-04-24T18:56:23.824Z,14.15
2018-04-24T18:58:52.088Z,14.01
2018-04-24T19:01:21.099Z,13.88
2018-04-24T19:03:49.377Z,13.87
2018-04-24T19:06:17.619Z,13.79
2018-04-24T19:08:45.901Z,13.70
2018-04-24T19:11:14.152Z,13.65
2018-04-24T19:13:42.413Z,13.62
2018-04-24T19:16:11.904Z,13.59
2018-04-24T19:18:45.726Z,13.52
2018-04-24T19:21:13.972Z,13.42
2018-04-24T19:23:43.017Z,13.33
2018-04-24T19:26:11.256Z,13.56
2018-04-24T19:28:40.309Z,13.24
2018-04-24T19:31:13.824Z,13.12
2018-04-24T19:33:42.077Z,13.03
2018-04-24T19:36:10.339Z,12.97
2018-04-24T19:38:38.602Z,13.34
2018-04-24T19:41:12.325Z,13.00
2018-04-24T19:43:40.524Z,12.96
2018-04-24T19:46:08.776Z,12.72
2018-04-24T19:48:42.430Z,12.55
2018-04-24T19:51:10.680Z,12.53
2018-04-24T19:53:38.944Z,12.44
2018-04-24T19:56:07.191Z,12.38
2018-04-24T19:58:35.787Z,12.29
2018-04-24T20:01:03.988Z,12.19
2018-04-24T20:03:32.271Z,12.20
2018-04-24T20:06:00.523Z,12.43
2018-04-24T20:08:29.556Z,12.46
2018-04-24T20:10:57.810Z,12.48
2018-04-24T20:13:26.839Z,12.21
2018-04-24T20:15:55.097Z,11.90
2018-04-24T20:18:23.398Z,11.83
2018-04-24T20:20:51.615Z,11.73
2018-04-24T20:23:19.872Z,11.70
2018-04-24T20:25:48.127Z,11.64
2018-04-24T20:28:16.389Z,11.57
2018-04-24T20:30:45.435Z,11.43
2018-04-24T20:33:13.694Z,11.54
2018-04-24T20:35:41.959Z,11.45
2018-04-24T20:38:10.218Z,11.25
2018-04-24T20:40:39.256Z,11.16
2018-04-24T20:43:07.506Z,11.12
2018-04-24T20:45:36.531Z,11.03
2018-04-24T20:48:04.801Z,11.03
2018-04-24T20:50:33.067Z,10.94
2018-04-24T20:53:02.079Z,10.87
2018-04-24T20:55:30.373Z,10.80
2018-04-24T20:57:58.631Z,10.78
2018-04-24T21:00:26.907Z,10.74
2018-04-24T21:02:55.926Z,10.70
2018-04-24T21:05:24.203Z,10.75
2018-04-24T21:07:52.449Z,10.75
2018-04-24T21:10:21.485Z,10.71
2018-04-24T21:12:49.742Z,10.83
2018-04-24T21:15:18.251Z,10.83
2018-04-24T21:17:46.506Z,10.71
2018-04-24T21:20:15.528Z,10.67
2018-04-24T21:22:43.797Z,10.58
2018-04-24T21:25:12.077Z,10.55
2018-04-24T21:27:40.311Z,10.53
2018-04-24T21:30:08.583Z,10.47
2018-04-24T21:32:36.830Z,10.42
2018-04-24T21:35:05.144Z,10.39
2018-04-24T21:37:34.596Z,10.47
2018-04-24T21:40:03.996Z,10.34
2018-04-24T21:42:33.013Z,10.29
2018-04-24T21:45:01.283Z,10.34
2018-04-24T21:47:29.537Z,10.35
2018-04-24T21:49:57.803Z,10.37
2018-04-24T21:52:26.464Z,10.21
2018-04-24T21:54:54.715Z,10.20
2018-04-24T21:57:22.971Z,10.13
2018-04-24T21:59:51.237Z,10.06
2018-04-24T22:02:19.482Z,10.07
2018-04-24T22:04:47.725Z,9.99
2018-04-24T22:07:16.757Z,10.10
2018-04-24T22:09:44.995Z,9.96
2018-04-24T22:12:14.279Z,9.89
2018-04-24T22:14:42.528Z,9.85
2018-04-24T22:17:10.771Z,9.77
2018-04-24T22:19:39.853Z,9.78
2018-04-24T22:22:08.247Z,9.78
2018-04-24T22:24:37.259Z,9.66
2018-04-24T22:27:05.547Z,9.68
2018-04-24T22:29:33.769Z,9.62
2018-04-24T22:32:02.030Z,9.56
2018-04-24T22:34:30.275Z,9.51
2018-04-24T22:36:58.783Z,9.72
2018-04-24T22:39:27.028Z,9.51
2018-04-24T22:41:56.040Z,9.44
2018-04-24T22:44:24.296Z,9.41
2018-04-24T22:46:52.553Z,9.35
2018-04-24T22:49:20.800Z,9.34
2018-04-24T22:51:49.055Z,9.43
2018-04-24T22:54:18.080Z,9.35
2018-04-24T22:56:46.352Z,9.28
2018-04-24T22:59:14.591Z,9.22
2018-04-24T23:01:42.850Z,9.41
2018-04-24T23:04:11.087Z,9.24
2018-04-24T23:06:39.342Z,9.24
2018-04-24T23:09:08.347Z,9.25
2018-04-24T23:11:54.941Z,9.29
2018-04-24T23:14:41.440Z,9.35
2018-04-24T23:17:28.035Z,9.28
2018-04-24T23:20:14.591Z,9.21
2018-04-24T23:22:42.850Z,9.48
2018-04-24T23:25:11.086Z,9.35
2018-04-24T23:27:40.107Z,9.14
2018-04-24T23:30:08.351Z,9.08
2018-04-24T23:32:36.612Z,9.05
2018-04-24T23:35:04.853Z,8.99
2018-04-24T23:37:33.102Z,8.96
2018-04-24T23:40:01.413Z,9.11
2018-04-24T23:42:29.603Z,8.99
2018-04-24T23:44:57.852Z,8.91
2018-04-24T23:47:26.872Z,8.95
2018-04-24T23:49:55.115Z,8.84
2018-04-24T23:52:23.397Z,8.85
2018-04-24T23:54:51.638Z,8.76
2018-04-24T23:57:19.897Z,8.70
2018-04-24T23:59:48.138Z,8.64
